Able — 3FHH2 — position and weather

sailwx.info

Track history (hours):
 
Tides and Currents Weather Stations Pressure Air Temp Water Temp Dewpoint Dewpoint Depression Visibility Wind Speed Wind Dir Waves Ship Positions

Able

Last reported at 2018-Jun-16 16:42 UTC. Time now 2018-Jun-23 21:37 UTC.
Position N 42°15' E 033°09'.

Length 114 m; draft 6.7 m.

Type: Cargo ship. MMSI: 374712000.

Date/timePositionNaut miles runAvg speedWind from/ knotsBaromVisibWave heightAir tempDewpointWater temp
2018-Jun-16 16:42N 42°15' E 033°09'2 8.6
2018-Jun-16 16:30N 42°16' E 033°07'4 8.7
2018-Jun-16 16:01N 42°19' E 033°03'14 8.6
2018-Jun-16 14:24N 42°29' E 032°50'26 8.3
2018-Jun-16 11:14N 42°50' E 032°27'70 8.3
2018-Jun-16 02:49N 43°43' E 031°26'3 8.6
2018-Jun-16 02:30N 43°45' E 031°24'6 8.9
2018-Jun-16 01:50N 43°50' E 031°18'3 9.0
2018-Jun-16 01:31N 43°52' E 031°16'5 9.0
2018-Jun-16 01:00N 43°56' E 031°12'4 8.6
2018-Jun-16 00:30N 43°59' E 031°08'4 8.5
2018-Jun-16 00:00N 44°02' E 031°04'4 8.1
2018-Jun-15 23:30N 44°06' E 031°01'4 8.4
2018-Jun-15 23:00N 44°09' E 030°57'4 8.4
2018-Jun-15 22:30N 44°12' E 030°53'4 8.0
2018-Jun-15 22:00N 44°15' E 030°50'4 7.8
2018-Jun-15 21:30N 44°18' E 030°46'4 7.9
2018-Jun-15 21:00N 44°21' E 030°43'4 8.2
2018-Jun-15 20:30N 44°24' E 030°39'4 8.2
2018-Jun-15 20:01N 44°27' E 030°35'4 8.1
2018-Jun-15 19:30N 44°30' E 030°32'4 7.9
2018-Jun-15 19:01N 44°33' E 030°28'4 8.3
2018-Jun-15 18:31N 44°37' E 030°24'4 8.5
2018-Jun-15 18:01N 44°40' E 030°20'4 8.4
2018-Jun-15 17:30N 44°43' E 030°16'4 8.6
2018-Jun-15 17:00N 44°46' E 030°13'4 8.7
2018-Jun-15 16:31N 44°50' E 030°09'5 8.6
2018-Jun-15 15:59N 44°53' E 030°04'91 5.1
2018-Jun-14 22:05N 45°26' E 028°05'0 0.0
2018-Jun-14 21:59N 45°26' E 028°05'0 0.0
2018-Jun-14 21:26N 45°26' E 028°05'0 0.0
2018-Jun-14 19:26N 45°26' E 028°05'0 0.0
2018-Jun-14 18:59N 45°26' E 028°05'  
2018-Jun-10 02:11N 45°26' E 028°05'0 0.0
2018-Jun-10 01:47N 45°26' E 028°05'0 0.0
2018-Jun-10 01:23N 45°26' E 028°05'0 0.0
2018-Jun-10 00:14N 45°26' E 028°05'0 0.0
2018-Jun-09 23:11N 45°26' E 028°05'0 0.0
2018-Jun-09 22:50N 45°26' E 028°05'0 0.0
2018-Jun-09 21:05N 45°26' E 028°05'0 0.0
2018-Jun-09 20:44N 45°26' E 028°05'0 0.0
2018-Jun-08 23:53N 45°26' E 028°05'0 0.0
2018-Jun-08 23:29N 45°26' E 028°05'0 0.0
2018-Jun-08 22:56N 45°26' E 028°05'0 0.0
2018-Jun-08 21:47N 45°26' E 028°05'0 0.0
2018-Jun-08 21:29N 45°26' E 028°05'56 5.5
2018-Jun-08 11:09N 45°11' E 029°22'5 7.6
2018-Jun-08 10:29N 45°10' E 029°29'4 7.6
2018-Jun-08 10:01N 45°11' E 029°34'4 7.4
2018-Jun-08 09:31N 45°09' E 029°39'0 0.7
2018-Jun-08 08:55N 45°09' E 029°39'0 0.0
2018-Jun-08 08:28N 45°09' E 029°39'0 0.0
2018-Jun-08 07:58N 45°09' E 029°39'0 0.6
2018-Jun-08 07:30N 45°09' E 029°40'3 6.1
2018-Jun-08 07:00N 45°10' E 029°44'3 6.9
2018-Jun-08 06:30N 45°08' E 029°49'4 8.0
2018-Jun-08 06:00N 45°05' E 029°53'5 9.6
2018-Jun-08 05:30N 45°00' E 029°54'5 9.1
2018-Jun-08 05:00N 44°56' E 029°54'5 9.5
2018-Jun-08 04:30N 44°51' E 029°54'5 9.3
2018-Jun-08 04:00N 44°47' E 029°54'5 9.0
2018-Jun-08 03:28N 44°42' E 029°54'4 9.1
2018-Jun-08 03:00N 44°37' E 029°53'5 9.7
2018-Jun-08 02:30N 44°33' E 029°52'510.2
2018-Jun-08 02:00N 44°28' E 029°51'510.0
2018-Jun-08 01:30N 44°23' E 029°50'5 9.7
2018-Jun-08 01:00N 44°18' E 029°49'5 9.4
2018-Jun-08 00:30N 44°13' E 029°48'5 9.2
2018-Jun-08 00:00N 44°09' E 029°47'5 9.1
2018-Jun-07 23:29N 44°04' E 029°46'4 9.1
2018-Jun-07 23:00N 43°60' E 029°45'4 8.9
2018-Jun-07 22:30N 43°55' E 029°44'4 8.9
2018-Jun-07 22:00N 43°51' E 029°43'4 8.7
2018-Jun-07 21:30N 43°47' E 029°42'4 8.6
2018-Jun-07 21:00N 43°42' E 029°42'4 8.7
2018-Jun-07 20:30N 43°38' E 029°40'5 9.4
2018-Jun-07 20:00N 43°34' E 029°39'5 9.4
2018-Jun-07 19:30N 43°29' E 029°38'5 9.6
2018-Jun-07 19:00N 43°24' E 029°38'5 9.5
2018-Jun-07 18:28N 43°19' E 029°37'11 9.0
2018-Jun-07 17:14N 43°08' E 029°35'2 9.4
2018-Jun-07 17:00N 43°06' E 029°35'4 8.9
2018-Jun-07 16:30N 43°01' E 029°34'5 9.2
2018-Jun-07 16:00N 42°57' E 029°33'4 8.8
2018-Jun-07 15:30N 42°53' E 029°32'4 8.9
2018-Jun-07 15:00N 42°48' E 029°30'5 9.0
2018-Jun-07 14:30N 42°44' E 029°29'4 8.8
2018-Jun-07 14:00N 42°39' E 029°28'9 9.0
2018-Jun-07 12:57N 42°30' E 029°27'5 9.1
2018-Jun-07 12:27N 42°25' E 029°26'4 8.6
2018-Jun-07 12:00N 42°22' E 029°25'5 8.7
2018-Jun-07 11:28N 42°17' E 029°24'9 9.0
2018-Jun-07 10:26N 42°08' E 029°23'4 9.4
2018-Jun-07 10:00N 42°04' E 029°22'  
Track history (hours):
 
Tides and Currents Weather Stations Pressure Air Temp Water Temp Dewpoint Dewpoint Depression Visibility Wind Speed Wind Dir Waves Ship Positions

Able

Last reported at 2018-Jun-16 16:42 UTC. Time now 2018-Jun-23 21:37 UTC.
Position N 42°15' E 033°09'.

Length 114 m; draft 6.7 m.

Type: Cargo ship. MMSI: 374712000.

Date/timePositionNaut miles runAvg speedWind from/ knotsBaromVisibWave heightAir tempDewpointWater temp
2018-Jun-16 16:42N 42°15' E 033°09'2 8.6
2018-Jun-16 16:30N 42°16' E 033°07'4 8.7
2018-Jun-16 16:01N 42°19' E 033°03'14 8.6
2018-Jun-16 14:24N 42°29' E 032°50'26 8.3
2018-Jun-16 11:14N 42°50' E 032°27'70 8.3
2018-Jun-16 02:49N 43°43' E 031°26'3 8.6
2018-Jun-16 02:30N 43°45' E 031°24'6 8.9
2018-Jun-16 01:50N 43°50' E 031°18'3 9.0
2018-Jun-16 01:31N 43°52' E 031°16'5 9.0
2018-Jun-16 01:00N 43°56' E 031°12'4 8.6
2018-Jun-16 00:30N 43°59' E 031°08'4 8.5
2018-Jun-16 00:00N 44°02' E 031°04'4 8.1
2018-Jun-15 23:30N 44°06' E 031°01'4 8.4
2018-Jun-15 23:00N 44°09' E 030°57'4 8.4
2018-Jun-15 22:30N 44°12' E 030°53'4 8.0
2018-Jun-15 22:00N 44°15' E 030°50'4 7.8
2018-Jun-15 21:30N 44°18' E 030°46'4 7.9
2018-Jun-15 21:00N 44°21' E 030°43'4 8.2
2018-Jun-15 20:30N 44°24' E 030°39'4 8.2
2018-Jun-15 20:01N 44°27' E 030°35'4 8.1
2018-Jun-15 19:30N 44°30' E 030°32'4 7.9
2018-Jun-15 19:01N 44°33' E 030°28'4 8.3
2018-Jun-15 18:31N 44°37' E 030°24'4 8.5
2018-Jun-15 18:01N 44°40' E 030°20'4 8.4
2018-Jun-15 17:30N 44°43' E 030°16'4 8.6
2018-Jun-15 17:00N 44°46' E 030°13'4 8.7
2018-Jun-15 16:31N 44°50' E 030°09'5 8.6
2018-Jun-15 15:59N 44°53' E 030°04'91 5.1
2018-Jun-14 22:05N 45°26' E 028°05'0 0.0
2018-Jun-14 21:59N 45°26' E 028°05'0 0.0
2018-Jun-14 21:26N 45°26' E 028°05'0 0.0
2018-Jun-14 19:26N 45°26' E 028°05'0 0.0
2018-Jun-14 18:59N 45°26' E 028°05'  
2018-Jun-10 02:11N 45°26' E 028°05'0 0.0
2018-Jun-10 01:47N 45°26' E 028°05'0 0.0
2018-Jun-10 01:23N 45°26' E 028°05'0 0.0
2018-Jun-10 00:14N 45°26' E 028°05'0 0.0
2018-Jun-09 23:11N 45°26' E 028°05'0 0.0
2018-Jun-09 22:50N 45°26' E 028°05'0 0.0
2018-Jun-09 21:05N 45°26' E 028°05'0 0.0
2018-Jun-09 20:44N 45°26' E 028°05'0 0.0
2018-Jun-08 23:53N 45°26' E 028°05'0 0.0
2018-Jun-08 23:29N 45°26' E 028°05'0 0.0
2018-Jun-08 22:56N 45°26' E 028°05'0 0.0
2018-Jun-08 21:47N 45°26' E 028°05'0 0.0
2018-Jun-08 21:29N 45°26' E 028°05'56 5.5
2018-Jun-08 11:09N 45°11' E 029°22'5 7.6
2018-Jun-08 10:29N 45°10' E 029°29'4 7.6
2018-Jun-08 10:01N 45°11' E 029°34'4 7.4
2018-Jun-08 09:31N 45°09' E 029°39'0 0.7
2018-Jun-08 08:55N 45°09' E 029°39'0 0.0
2018-Jun-08 08:28N 45°09' E 029°39'0 0.0
2018-Jun-08 07:58N 45°09' E 029°39'0 0.6
2018-Jun-08 07:30N 45°09' E 029°40'3 6.1
2018-Jun-08 07:00N 45°10' E 029°44'3 6.9
2018-Jun-08 06:30N 45°08' E 029°49'4 8.0
2018-Jun-08 06:00N 45°05' E 029°53'5 9.6
2018-Jun-08 05:30N 45°00' E 029°54'5 9.1
2018-Jun-08 05:00N 44°56' E 029°54'5 9.5
2018-Jun-08 04:30N 44°51' E 029°54'5 9.3
2018-Jun-08 04:00N 44°47' E 029°54'5 9.0
2018-Jun-08 03:28N 44°42' E 029°54'4 9.1
2018-Jun-08 03:00N 44°37' E 029°53'5 9.7
2018-Jun-08 02:30N 44°33' E 029°52'510.2
2018-Jun-08 02:00N 44°28' E 029°51'510.0
2018-Jun-08 01:30N 44°23' E 029°50'5 9.7
2018-Jun-08 01:00N 44°18' E 029°49'5 9.4
2018-Jun-08 00:30N 44°13' E 029°48'5 9.2
2018-Jun-08 00:00N 44°09' E 029°47'5 9.1
2018-Jun-07 23:29N 44°04' E 029°46'4 9.1
2018-Jun-07 23:00N 43°60' E 029°45'4 8.9
2018-Jun-07 22:30N 43°55' E 029°44'4 8.9
2018-Jun-07 22:00N 43°51' E 029°43'4 8.7
2018-Jun-07 21:30N 43°47' E 029°42'4 8.6
2018-Jun-07 21:00N 43°42' E 029°42'4 8.7
2018-Jun-07 20:30N 43°38' E 029°40'5 9.4
2018-Jun-07 20:00N 43°34' E 029°39'5 9.4
2018-Jun-07 19:30N 43°29' E 029°38'5 9.6
2018-Jun-07 19:00N 43°24' E 029°38'5 9.5
2018-Jun-07 18:28N 43°19' E 029°37'11 9.0
2018-Jun-07 17:14N 43°08' E 029°35'2 9.4
2018-Jun-07 17:00N 43°06' E 029°35'4 8.9
2018-Jun-07 16:30N 43°01' E 029°34'5 9.2
2018-Jun-07 16:00N 42°57' E 029°33'4 8.8
2018-Jun-07 15:30N 42°53' E 029°32'4 8.9
2018-Jun-07 15:00N 42°48' E 029°30'5 9.0
2018-Jun-07 14:30N 42°44' E 029°29'4 8.8
2018-Jun-07 14:00N 42°39' E 029°28'9 9.0
2018-Jun-07 12:57N 42°30' E 029°27'5 9.1
2018-Jun-07 12:27N 42°25' E 029°26'4 8.6
2018-Jun-07 12:00N 42°22' E 029°25'5 8.7
2018-Jun-07 11:28N 42°17' E 029°24'9 9.0
2018-Jun-07 10:26N 42°08' E 029°23'4 9.4
2018-Jun-07 10:00N 42°04' E 029°22'  

Dump ship's entire track history